Time;durP1;ratioP1;P1;durP2;ratioP2;P2;SDS_P1;SDS_P2;PMS_P1;PMS_P2;Temp;Humidity;BMP_temperature;BMP_pressure;BME280_temperature;BME280_humidity;BME280_pressure;Samples;Min_cycle;Max_cycle;Signal;HPM_P1;HPM_P2
2023/08/20 00:01:33;;;;;;;;;;;;;;;-140.72;0.00;52585.66;6278198;22;19915;-68
2023/08/20 00:03:58;;;;;;;;;;;;;;;-140.72;0.00;52585.66;6278738;22;19939;-68
2023/08/20 00:06:26;;;;;;;;;;;;;;;-140.72;0.00;52616.09;6278538;22;19912;-68
2023/08/20 00:08:51;;;;;;;;;;;;;;;-140.72;0.00;52569.44;6278075;22;19915;-68
2023/08/20 00:11:17;;;;;;;;;;;;;;;-140.72;0.00;52593.78;6278027;22;19949;-68
2023/08/20 00:13:51;;;;;;;;;;;;;;;-140.72;0.00;52573.50;6276485;22;19926;-68
2023/08/20 00:16:16;;;;;;;;;;;;;;;-140.72;0.00;52589.72;6278402;22;20050;-68
2023/08/20 00:18:43;;;;;;;;;;;;;;;-140.72;0.00;52612.03;6278546;22;19994;-68
2023/08/20 00:21:09;;;;;;;;;;;;;;;-140.72;0.00;52605.94;6302345;22;19912;-68
2023/08/20 00:23:35;;;;;;;;;;;;;;;-140.72;0.00;52624.22;6278053;22;19938;-68
2023/08/20 00:26:02;;;;;;;;;;;;;;;-140.72;0.00;52585.66;6277723;22;19911;-68
2023/08/20 00:28:27;;;;;;;;;;;;;;;-140.72;0.00;52603.94;6275941;22;19926;-69
2023/08/20 00:30:52;;;;;;;;;;;;;;;-140.72;0.00;52573.50;6277895;22;19911;-69
2023/08/20 00:33:17;;;;;;;;;;;;;;;-140.72;0.00;52612.03;6278221;22;19957;-69
2023/08/20 00:35:43;;;;;;;;;;;;;;;-140.72;0.00;52607.97;6278008;22;19915;-69
2023/08/20 00:38:08;;;;;;;;;;;;;;;-140.72;0.00;52610.00;6278343;22;19943;-68
2023/08/20 00:40:33;;;;;;;;;;;;;;;-140.72;0.00;52575.50;6302063;22;19911;-68
2023/08/20 00:42:58;;;;;;;;;;;;;;;-140.72;0.00;52610.00;6278017;22;19934;-68
2023/08/20 00:45:24;;;;;;;;;;;;;;;-140.72;0.00;52612.03;6278087;22;20331;-68
2023/08/20 00:47:50;;;;;;;;;;;;;;;-140.72;0.00;52585.66;6277169;22;19934;-67
2023/08/20 00:50:16;;;;;;;;;;;;;;;-140.72;0.00;52597.84;6278270;22;20237;-67
2023/08/20 00:52:41;;;;;;;;;;;;;;;-140.72;0.00;52547.09;6278290;22;20320;-68
2023/08/20 00:55:08;;;;;;;;;;;;;;;-140.72;0.00;52591.75;6276453;22;19957;-69
2023/08/20 00:57:34;;;;;;;;;;;;;;;-140.72;0.00;52585.66;6275903;22;19912;-68
2023/08/20 00:59:59;;;;;;;;;;;;;;;-140.72;0.00;52585.66;6276190;22;19915;-68
2023/08/20 01:02:25;;;;;;;;;;;;;;;-140.72;0.00;52612.03;6277541;22;20332;-68
2023/08/20 01:04:50;;;;;;;;;;;;;;;-140.72;0.00;52573.50;6277629;22;19973;-69
2023/08/20 01:07:21;;;;;;;;;;;;;;;-140.72;0.00;52573.50;6277755;22;20264;-69
2023/08/20 01:09:47;;;;;;;;;;;;;;;-140.72;0.00;52620.16;6276089;22;20306;-68
2023/08/20 01:12:13;;;;;;;;;;;;;;;-140.72;0.00;52638.41;6275750;22;19918;-69
2023/08/20 01:14:38;;;;;;;;;;;;;;;-140.72;0.00;52616.09;6277709;22;19915;-68
2023/08/20 01:17:03;;;;;;;;;;;;;;;-140.72;0.00;52597.84;6277807;22;20334;-69
2023/08/20 01:19:28;;;;;;;;;;;;;;;-140.72;0.00;52605.94;6301990;22;20010;-68
2023/08/20 01:22:00;;;;;;;;;;;;;;;-140.72;0.00;52616.09;6277608;22;19915;-68
2023/08/20 01:24:39;;;;;;;;;;;;;;;-140.72;0.00;52551.16;6277735;22;19922;-68
2023/08/20 01:27:23;;;;;;;;;;;;;;;-140.72;0.00;52563.34;6302036;22;20332;-68
2023/08/20 01:29:49;;;;;;;;;;;;;;;-140.72;0.00;52620.16;6277182;22;19916;-68
2023/08/20 01:32:14;;;;;;;;;;;;;;;-140.72;0.00;52599.88;6277555;22;19912;-69
2023/08/20 01:34:39;;;;;;;;;;;;;;;-140.72;0.00;52628.28;6277402;22;19911;-68
2023/08/20 01:37:05;;;;;;;;;;;;;;;-140.72;0.00;52614.06;6276935;22;20347;-68
2023/08/20 01:39:30;;;;;;;;;;;;;;;-140.72;0.00;52601.91;6277162;22;20256;-69
2023/08/20 01:41:55;;;;;;;;;;;;;;;-140.72;0.00;52581.59;6277930;22;19911;-68
2023/08/20 01:44:20;;;;;;;;;;;;;;;-140.72;2.86;52605.94;6276987;22;19950;-68
2023/08/20 01:46:47;;;;;;;;;;;;;;;-140.72;9.48;52610.00;6275316;22;19969;-69
2023/08/20 01:49:12;;;;;;;;;;;;;;;-140.72;16.56;52616.09;6301403;22;19915;-69
2023/08/20 01:51:37;;;;;;;;;;;;;;;-140.72;23.73;52605.94;6277244;22;19964;-69
2023/08/20 01:54:02;;;;;;;;;;;;;;;-140.72;27.25;52585.66;6277121;22;19931;-69
2023/08/20 01:56:28;;;;;;;;;;;;;;;-140.72;35.60;52599.88;6275863;22;20010;-69
2023/08/20 01:58:53;;;;;;;;;;;;;;;-140.72;42.10;52650.59;6301545;22;19965;-69
2023/08/20 02:01:18;;;;;;;;;;;;;;;-140.72;42.83;52612.03;6301455;22;20236;-69
2023/08/20 02:03:43;;;;;;;;;;;;;;;-140.72;50.22;52634.38;6277189;22;20293;-68
2023/08/20 02:06:08;;;;;;;;;;;;;;;-140.72;59.74;52626.25;6277228;22;19995;-69
2023/08/20 02:08:34;;;;;;;;;;;;;;;-140.72;67.12;52634.38;6301209;22;19912;-69
2023/08/20 02:11:03;;;;;;;;;;;;;;;-140.72;67.40;52630.31;6301361;22;20329;-68
2023/08/20 02:13:28;;;;;;;;;;;;;;;-140.72;69.90;52624.22;6277435;22;19919;-68
2023/08/20 02:16:00;;;;;;;;;;;;;;;-140.72;74.39;52644.50;6277099;22;19965;-69
2023/08/20 02:18:25;;;;;;;;;;;;;;;-140.72;80.63;52646.53;6277252;22;19950;-68
2023/08/20 02:20:51;;;;;;;;;;;;;;;-140.72;85.88;52626.25;6276992;22;19911;-68
2023/08/20 02:23:16;;;;;;;;;;;;;;;-140.72;90.85;52654.66;6276990;22;20323;-68
2023/08/20 02:26:14;;;;;;;;;;;;;;;-140.72;100.00;52612.03;6273095;22;20347;-68
2023/08/20 02:28:40;;;;;;;;;;;;;;;-140.72;100.00;52601.91;6274905;22;20311;-68
2023/08/20 02:31:11;;;;;;;;;;;;;;;-140.72;100.00;52634.38;6277032;22;19919;-68
2023/08/20 02:33:36;;;;;;;;;;;;;;;-140.72;100.00;52634.38;6276197;22;20355;-68
2023/08/20 02:36:03;;;;;;;;;;;;;;;-140.72;100.00;52683.06;6276354;22;19915;-68
2023/08/20 02:38:28;;;;;;;;;;;;;;;-140.72;100.00;52626.25;6277333;22;19934;-68
2023/08/20 02:40:56;;;;;;;;;;;;;;;-140.72;100.00;52662.78;6274765;22;19911;-68
2023/08/20 02:43:21;;;;;;;;;;;;;;;-140.72;100.00;52644.50;6277230;22;19930;-68
2023/08/20 02:45:46;;;;;;;;;;;;;;;-140.72;100.00;52640.44;6276971;22;19915;-68
2023/08/20 02:48:12;;;;;;;;;;;;;;;-140.72;100.00;52654.66;6276891;22;20244;-68
2023/08/20 02:50:37;;;;;;;;;;;;;;;-140.72;100.00;52668.84;6276360;22;20216;-68
2023/08/20 02:53:03;;;;;;;;;;;;;;;-140.72;100.00;52672.91;6276989;22;20345;-68
2023/08/20 02:55:28;;;;;;;;;;;;;;;-140.72;100.00;52691.19;6301231;22;19915;-68
2023/08/20 02:57:53;;;;;;;;;;;;;;;-140.72;100.00;52668.84;6276970;22;19921;-68
2023/08/20 03:00:19;;;;;;;;;;;;;;;-140.72;100.00;52668.84;6276806;22;19938;-68
2023/08/20 03:02:44;;;;;;;;;;;;;;;-140.72;100.00;52674.94;6276736;22;19915;-68
2023/08/20 03:05:09;;;;;;;;;;;;;;;-140.72;100.00;52679.00;6275332;22;19997;-68
2023/08/20 03:07:35;;;;;;;;;;;;;;;-140.72;100.00;52656.69;6301063;22;19911;-68
2023/08/20 03:10:00;;;;;;;;;;;;;;;-140.72;100.00;52658.72;6276397;22;19943;-68
2023/08/20 03:12:25;;;;;;;;;;;;;;;-140.72;100.00;52630.31;6275160;22;19998;-68
2023/08/20 03:14:50;;;;;;;;;;;;;;;-140.72;100.00;52703.34;6276471;22;19957;-67
2023/08/20 03:17:16;;;;;;;;;;;;;;;-140.72;100.00;52670.88;6277370;22;19915;-68
2023/08/20 03:19:53;;;;;;;;;;;;;;;-140.72;100.00;52658.72;6277056;22;19912;-68
2023/08/20 03:22:18;;;;;;;;;;;;;;;-140.72;100.00;52687.13;6279114;22;19965;-67
2023/08/20 03:24:43;;;;;;;;;;;;;;;-140.72;100.00;52654.66;6278342;22;19915;-68
2023/08/20 03:27:08;;;;;;;;;;;;;;;-140.72;100.00;52705.38;6278718;22;20283;-68
2023/08/20 03:29:34;;;;;;;;;;;;;;;-140.72;100.00;52664.81;6277013;22;20324;-68
2023/08/20 03:31:59;;;;;;;;;;;;;;;-140.72;100.00;52640.44;6302939;22;20328;-68
2023/08/20 03:34:24;;;;;;;;;;;;;;;-140.72;100.00;52674.94;6303035;22;20378;-68
2023/08/20 03:36:49;;;;;;;;;;;;;;;-140.72;100.00;52679.00;6278951;22;19915;-68
2023/08/20 03:39:15;;;;;;;;;;;;;;;-140.72;100.00;52709.44;6278799;22;19912;-68
2023/08/20 03:41:40;;;;;;;;;;;;;;;-140.72;100.00;52679.00;6278381;22;19915;-68
2023/08/20 03:44:05;;;;;;;;;;;;;;;-140.72;100.00;52670.88;6302719;22;19911;-68
2023/08/20 03:46:30;;;;;;;;;;;;;;;-140.72;100.00;52666.84;6278463;22;20296;-69
2023/08/20 03:48:56;;;;;;;;;;;;;;;-140.72;100.00;52679.00;6278377;22;19922;-69
2023/08/20 03:51:21;;;;;;;;;;;;;;;-140.72;100.00;52664.81;6278537;22;19961;-68
2023/08/20 03:53:46;;;;;;;;;;;;;;;-140.72;100.00;52679.00;6278423;22;19969;-68
2023/08/20 03:56:11;;;;;;;;;;;;;;;-140.72;100.00;52731.75;6278518;22;19990;-68
2023/08/20 03:58:37;;;;;;;;;;;;;;;-140.72;100.00;52674.94;6278503;22;19961;-68
2023/08/20 04:01:03;;;;;;;;;;;;;;;-140.72;100.00;52683.06;6278299;22;20337;-68
2023/08/20 04:03:28;;;;;;;;;;;;;;;-140.72;100.00;52652.63;6276834;22;19942;-68
2023/08/20 04:05:54;;;;;;;;;;;;;;;-140.72;100.00;52674.94;6277767;22;19911;-68
2023/08/20 04:08:19;;;;;;;;;;;;;;;-140.72;100.00;52672.91;6277014;22;19911;-68
2023/08/20 04:10:45;;;;;;;;;;;;;;;-140.72;100.00;52697.28;6278639;22;19982;-68
2023/08/20 04:13:11;;;;;;;;;;;;;;;-140.72;100.00;52693.22;6276927;22;19934;-68
2023/08/20 04:15:36;;;;;;;;;;;;;;;-140.72;100.00;52709.44;6302255;22;19923;-68
2023/08/20 04:18:02;;;;;;;;;;;;;;;-140.72;100.00;52679.00;6278090;22;20251;-68
2023/08/20 04:20:27;;;;;;;;;;;;;;;-140.72;100.00;52674.94;6302228;22;19911;-68
2023/08/20 04:22:52;;;;;;;;;;;;;;;-140.72;100.00;52676.97;6278383;22;19918;-68
2023/08/20 04:25:17;;;;;;;;;;;;;;;-140.72;100.00;52711.47;6278058;22;19911;-68
2023/08/20 04:27:42;;;;;;;;;;;;;;;-140.72;100.00;52679.00;6277345;22;20351;-68
2023/08/20 04:30:09;;;;;;;;;;;;;;;-140.72;100.00;52689.16;6277879;22;19915;-68
2023/08/20 04:32:34;;;;;;;;;;;;;;;-140.72;100.00;52719.59;6277356;22;20002;-68
2023/08/20 04:34:59;;;;;;;;;;;;;;;-140.72;100.00;52707.41;6277742;22;19911;-68
2023/08/20 04:37:24;;;;;;;;;;;;;;;-140.72;100.00;52729.75;6277957;22;19911;-68
2023/08/20 04:39:50;;;;;;;;;;;;;;;-140.72;100.00;52679.00;6277925;22;19915;-69
2023/08/20 04:42:15;;;;;;;;;;;;;;;-140.72;100.00;52713.50;6302064;22;20328;-68
2023/08/20 04:44:40;;;;;;;;;;;;;;;-140.72;100.00;52709.44;6277902;22;19916;-68
2023/08/20 04:47:05;;;;;;;;;;;;;;;-140.72;100.00;52703.34;6277925;22;19978;-68
2023/08/20 04:49:30;;;;;;;;;;;;;;;-140.72;100.00;52719.59;6277659;22;19911;-68
2023/08/20 04:51:56;;;;;;;;;;;;;;;-140.72;100.00;52733.78;6302107;22;19923;-68
2023/08/20 04:54:21;;;;;;;;;;;;;;;-140.72;100.00;52691.19;6277535;22;19918;-67
2023/08/20 04:56:46;;;;;;;;;;;;;;;-140.72;100.00;52681.03;6277632;22;20377;-68
2023/08/20 04:59:12;;;;;;;;;;;;;;;-140.72;100.00;52711.47;6276504;22;19986;-67
2023/08/20 05:01:38;;;;;;;;;;;;;;;-140.72;100.00;52656.69;6277767;22;19919;-67
2023/08/20 05:04:03;;;;;;;;;;;;;;;-140.72;100.00;52707.41;6277433;22;19993;-68
2023/08/20 05:06:28;;;;;;;;;;;;;;;-140.72;100.00;52719.59;6275926;22;19918;-68
2023/08/20 05:08:53;;;;;;;;;;;;;;;-140.72;100.00;52681.03;6277604;22;19998;-68
2023/08/20 05:11:19;;;;;;;;;;;;;;;-140.72;100.00;52666.84;6277494;22;19915;-69
2023/08/20 05:13:45;;;;;;;;;;;;;;;-140.72;100.00;52679.00;6277509;22;20224;-69
2023/08/20 05:16:10;;;;;;;;;;;;;;;-140.72;100.00;52676.97;6277819;22;19950;-69
2023/08/20 05:18:35;;;;;;;;;;;;;;;-140.72;100.00;52676.97;6278637;22;19919;-69
2023/08/20 05:21:01;;;;;;;;;;;;;;;-140.72;100.00;52699.31;6277181;22;20026;-69
2023/08/20 05:23:27;;;;;;;;;;;;;;;-140.72;100.00;52693.22;6276607;22;19950;-69
2023/08/20 05:25:52;;;;;;;;;;;;;;;-140.72;100.00;52691.19;6301730;22;19985;-69
2023/08/20 05:28:17;;;;;;;;;;;;;;;-140.72;100.00;52711.47;6275574;22;19943;-69
2023/08/20 05:30:43;;;;;;;;;;;;;;;-140.72;100.00;52697.28;6275598;22;19911;-69
2023/08/20 05:33:08;;;;;;;;;;;;;;;-140.72;100.00;52689.16;6277069;22;19918;-70
2023/08/20 05:35:51;;;;;;;;;;;;;;;-140.72;100.00;52721.63;6276759;22;19918;-69
2023/08/20 05:38:16;;;;;;;;;;;;;;;-140.72;100.00;52683.06;6277232;22;19919;-69
2023/08/20 05:40:41;;;;;;;;;;;;;;;-140.72;100.00;52636.38;6275333;22;20248;-69
2023/08/20 05:43:06;;;;;;;;;;;;;;;-140.72;100.00;52691.19;6275360;22;19912;-69
2023/08/20 05:45:32;;;;;;;;;;;;;;;-140.72;100.00;52672.91;6277212;22;19911;-69
2023/08/20 05:47:57;;;;;;;;;;;;;;;-140.72;100.00;52674.94;6276905;22;19965;-69
2023/08/20 05:50:22;;;;;;;;;;;;;;;-140.72;100.00;52725.69;6277095;22;20324;-69
2023/08/20 05:52:48;;;;;;;;;;;;;;;-140.72;100.00;52703.34;6277235;22;19925;-69
2023/08/20 05:55:13;;;;;;;;;;;;;;;-140.72;100.00;52683.06;6275429;22;19911;-69
2023/08/20 05:57:39;;;;;;;;;;;;;;;-140.72;100.00;52670.88;6277116;22;20225;-69
2023/08/20 06:00:04;;;;;;;;;;;;;;;-140.72;100.00;52672.91;6277411;22;20236;-67
2023/08/20 06:02:30;;;;;;;;;;;;;;;-140.72;100.00;52685.09;6276913;22;20327;-67
2023/08/20 06:04:55;;;;;;;;;;;;;;;-140.72;100.00;52666.84;6277252;22;19946;-68
2023/08/20 06:07:20;;;;;;;;;;;;;;;-140.72;100.00;52674.94;6277233;22;19911;-68
2023/08/20 06:09:45;;;;;;;;;;;;;;;-140.72;100.00;52654.66;6276877;22;19926;-68
2023/08/20 06:12:11;;;;;;;;;;;;;;;-140.72;100.00;52674.94;6277578;22;20308;-67
2023/08/20 06:14:36;;;;;;;;;;;;;;;-140.72;100.00;52672.91;6277476;22;20290;-67
2023/08/20 06:17:02;;;;;;;;;;;;;;;-140.72;100.00;52676.97;6276758;22;19911;-67
2023/08/20 06:19:27;;;;;;;;;;;;;;;-140.72;100.00;52650.59;6275163;22;19915;-71
2023/08/20 06:21:52;;;;;;;;;;;;;;;-140.72;100.00;52664.81;6277210;22;19911;-70
2023/08/20 06:24:18;;;;;;;;;;;;;;;-140.72;100.00;52620.16;6276994;22;19911;-70
2023/08/20 06:26:44;;;;;;;;;;;;;;;-140.72;100.00;52642.47;6276682;22;19911;-70
2023/08/20 06:29:10;;;;;;;;;;;;;;;-140.72;100.00;52620.16;6276947;22;19922;-70
2023/08/20 06:31:35;;;;;;;;;;;;;;;-140.72;100.00;52660.75;6276668;22;19912;-70
2023/08/20 06:34:00;;;;;;;;;;;;;;;-140.72;100.00;52610.00;6276822;22;19919;-70
2023/08/20 06:36:25;;;;;;;;;;;;;;;-140.72;100.00;52620.16;6276848;22;20380;-70
2023/08/20 06:38:50;;;;;;;;;;;;;;;-140.72;100.00;52664.81;6276663;22;20251;-70
2023/08/20 06:41:16;;;;;;;;;;;;;;;-140.72;100.00;52632.34;6300952;22;20328;-70
2023/08/20 06:43:41;;;;;;;;;;;;;;;-140.72;100.00;52636.38;6276791;22;19995;-70
2023/08/20 06:46:07;;;;;;;;;;;;;;;-140.72;100.00;52605.94;6276465;22;19969;-70
2023/08/20 06:48:32;;;;;;;;;;;;;;;-140.72;100.00;52605.94;6275043;22;19977;-71
2023/08/20 06:50:57;;;;;;;;;;;;;;;-140.72;100.00;52614.06;6301043;22;20332;-75
2023/08/20 06:53:23;;;;;;;;;;;;;;;-140.72;100.00;52587.69;6276970;22;19964;-74
2023/08/20 06:55:48;;;;;;;;;;;;;;;-140.72;100.00;52630.31;6276652;22;19982;-68
2023/08/20 06:58:13;;;;;;;;;;;;;;;-140.72;100.00;52601.91;6276502;22;20217;-68
2023/08/20 07:00:38;;;;;;;;;;;;;;;-140.72;100.00;52622.19;6276107;22;20272;-69
2023/08/20 07:03:04;;;;;;;;;;;;;;;-140.72;100.00;52597.84;6275086;22;20279;-74
2023/08/20 07:05:29;;;;;;;;;;;;;;;-140.72;100.00;52616.09;6277377;22;19918;-70
2023/08/20 07:07:54;;;;;;;;;;;;;;;-140.72;100.00;52589.72;6276848;22;19918;-69
2023/08/20 07:10:19;;;;;;;;;;;;;;;-140.72;100.00;52610.00;6276528;22;19946;-69
2023/08/20 07:12:45;;;;;;;;;;;;;;;-140.72;100.00;52565.38;6276133;22;19926;-69
2023/08/20 07:15:11;;;;;;;;;;;;;;;-140.72;100.00;52605.94;6300560;22;19915;-69
2023/08/20 07:17:36;;;;;;;;;;;;;;;-140.72;100.00;52605.94;6277030;22;20221;-70
2023/08/20 07:20:02;;;;;;;;;;;;;;;-140.72;100.00;52593.78;6276101;22;19961;-69
2023/08/20 07:22:28;;;;;;;;;;;;;;;-140.72;100.00;52583.63;6276459;22;19994;-69
2023/08/20 07:24:53;;;;;;;;;;;;;;;-140.72;100.00;52575.50;6276421;22;19918;-68
2023/08/20 07:27:18;;;;;;;;;;;;;;;-140.72;100.00;52573.50;6276752;22;19915;-69
2023/08/20 07:29:43;;;;;;;;;;;;;;;-140.72;95.57;52587.69;6276762;22;19923;-68
2023/08/20 07:32:09;;;;;;;;;;;;;;;-140.72;87.30;52581.59;6276837;22;19990;-68
2023/08/20 07:34:34;;;;;;;;;;;;;;;-140.72;77.68;52567.41;6276767;22;19911;-69
2023/08/20 07:36:59;;;;;;;;;;;;;;;-140.72;66.25;52571.47;6276767;22;19918;-69
2023/08/20 07:39:24;;;;;;;;;;;;;;;-140.72;61.14;52532.91;6276277;22;19912;-68
2023/08/20 07:41:58;;;;;;;;;;;;;;;-140.72;54.92;52541.03;6276783;22;19911;-68
2023/08/20 07:44:23;;;;;;;;;;;;;;;-140.72;46.99;52565.38;6277704;22;20368;-68
2023/08/20 07:46:48;;;;;;;;;;;;;;;-140.72;38.42;52541.03;6280960;22;19911;-68
2023/08/20 07:49:14;;;;;;;;;;;;;;;-140.72;31.02;52547.09;6280947;22;19964;-68
2023/08/20 07:51:39;;;;;;;;;;;;;;;-140.72;7.40;52543.03;6280375;22;19912;-67
2023/08/20 07:54:04;;;;;;;;;;;;;;;-140.72;0.61;52541.03;6278646;22;19994;-74
2023/08/20 07:56:29;;;;;;;;;;;;;;;-140.72;0.00;52583.63;6276322;22;19950;-69
2023/08/20 07:58:57;;;;;;;;;;;;;;;-140.72;0.00;52532.91;6277235;22;19950;-69
2023/08/20 08:01:22;;;;;;;;;;;;;;;-140.72;0.00;52563.34;6277159;22;19911;-70
2023/08/20 08:03:48;;;;;;;;;;;;;;;-140.72;0.00;52553.19;6276957;22;19931;-71
2023/08/20 08:06:16;;;;;;;;;;;;;;;-140.72;0.00;52532.91;6275155;22;20624;-70
2023/08/20 08:08:43;;;;;;;;;;;;;;;-140.72;0.00;52536.97;6277494;22;19918;-69
2023/08/20 08:11:10;;;;;;;;;;;;;;;-140.72;0.00;52522.75;6277243;22;20267;-68
2023/08/20 08:13:35;;;;;;;;;;;;;;;-140.72;0.00;52547.09;6278166;22;19965;-70
2023/08/20 08:16:01;;;;;;;;;;;;;;;-140.72;0.00;52482.16;6276976;22;19998;-68
2023/08/20 08:18:37;;;;;;;;;;;;;;;-140.72;0.00;52524.78;6277886;22;19922;-68
2023/08/20 08:21:03;;;;;;;;;;;;;;;-140.72;0.00;52476.09;6278207;22;20328;-69
2023/08/20 08:23:28;;;;;;;;;;;;;;;-140.72;0.00;52472.03;6277812;22;19918;-69
2023/08/20 08:25:54;;;;;;;;;;;;;;;-140.72;0.00;52504.50;6276928;22;19942;-69
2023/08/20 08:28:19;;;;;;;;;;;;;;;-140.72;0.00;52472.03;6274546;22;19922;-69
2023/08/20 08:30:44;;;;;;;;;;;;;;;-140.72;0.00;52480.16;6302607;22;19916;-69
2023/08/20 08:33:09;;;;;;;;;;;;;;;-140.72;0.00;52431.44;6302685;22;19911;-69
2023/08/20 08:35:35;;;;;;;;;;;;;;;-140.72;0.00;52411.16;6278068;22;19915;-69
2023/08/20 08:38:09;;;;;;;;;;;;;;;-140.72;0.00;52431.44;6278230;22;19916;-69
2023/08/20 08:40:34;;;;;;;;;;;;;;;-140.72;0.00;52453.75;6302248;22;19911;-70
2023/08/20 08:43:00;;;;;;;;;;;;;;;-140.72;0.00;52435.50;6276250;22;19915;-77
2023/08/20 08:45:26;;;;;;;;;;;;;;;-140.72;0.00;52407.09;6277965;22;19915;-71
2023/08/20 08:47:53;;;;;;;;;;;;;;;-140.72;0.00;52425.34;6276137;22;19915;-71
2023/08/20 08:50:19;;;;;;;;;;;;;;;-140.72;0.00;52401.00;6278439;22;19911;-74
2023/08/20 08:52:53;;;;;;;;;;;;;;;-140.72;0.00;52378.69;6276210;22;19996;-71
2023/08/20 08:55:19;;;;;;;;;;;;;;;-140.72;0.00;52419.28;6285128;22;19990;-71
2023/08/20 08:57:44;;;;;;;;;;;;;;;-140.72;0.00;52362.44;6288291;22;19912;-71
2023/08/20 09:00:09;;;;;;;;;;;;;;;-140.72;0.00;52364.47;6288245;22;19911;-71
2023/08/20 09:02:34;;;;;;;;;;;;;;;-140.72;0.00;52362.44;6283682;22;19911;-73
2023/08/20 09:05:00;;;;;;;;;;;;;;;-140.72;0.00;52289.41;6309222;22;19918;-72
2023/08/20 09:07:28;;;;;;;;;;;;;;;-140.72;0.00;52321.88;6281577;22;19991;-73
2023/08/20 09:09:57;;;;;;;;;;;;;;;-140.72;0.00;52275.19;6279308;22;19960;-73
2023/08/20 09:12:22;;;;;;;;;;;;;;;-140.72;0.00;52299.56;6279652;22;20040;-73
2023/08/20 09:14:49;;;;;;;;;;;;;;;-140.72;0.00;52309.69;6277137;22;19916;-76
2023/08/20 09:17:14;;;;;;;;;;;;;;;-140.72;0.00;52285.34;6279375;22;20228;-74
2023/08/20 09:19:39;;;;;;;;;;;;;;;-140.72;0.00;52208.25;6278517;22;19961;-75
2023/08/20 09:22:05;;;;;;;;;;;;;;;-140.72;0.00;52269.13;6278540;22;19911;-75
2023/08/20 09:24:42;;;;;;;;;;;;;;;-140.72;0.00;52220.41;6276839;22;19994;-74
2023/08/20 09:27:07;;;;;;;;;;;;;;;-140.72;0.00;52196.06;6278250;22;20016;-75
2023/08/20 09:29:33;;;;;;;;;;;;;;;-140.72;0.00;52187.97;6275770;22;20332;-74
2023/08/20 09:32:23;;;;;;;;;;;;;;;-140.72;0.00;52185.94;6276451;22;19950;-74
2023/08/20 09:35:06;;;;;;;;;;;;;;;-140.72;0.00;52155.50;6276269;22;20335;-74
2023/08/20 09:37:32;;;;;;;;;;;;;;;-140.72;0.00;52167.66;6278532;22;19911;-75
2023/08/20 09:39:57;;;;;;;;;;;;;;;-140.72;0.00;52163.59;6276207;22;19915;-74
2023/08/20 09:42:58;;;;;;;;;;;;;;;-140.72;0.00;52163.59;6278058;22;19918;-75
2023/08/20 09:45:28;;;;;;;;;;;;;;;-140.72;0.00;52137.22;6277132;22;19911;-74
2023/08/20 09:47:57;;;;;;;;;;;;;;;-140.72;0.00;52121.00;6276234;22;20320;-75
2023/08/20 09:50:23;;;;;;;;;;;;;;;-140.72;0.00;52123.03;6277416;22;19915;-76
2023/08/20 09:52:55;;;;;;;;;;;;;;;-140.72;0.00;52106.78;6278418;22;19911;-75
2023/08/20 09:55:22;;;;;;;;;;;;;;;-140.72;0.00;52056.06;6278806;22;19911;-76
2023/08/20 09:57:47;;;;;;;;;;;;;;;-140.72;0.00;52072.31;6278462;22;19966;-77
2023/08/20 10:00:13;;;;;;;;;;;;;;;-140.72;0.00;52114.91;6278805;22;19911;-76
2023/08/20 10:02:39;;;;;;;;;;;;;;;-140.72;0.00;52068.25;6276350;22;19961;-75
2023/08/20 10:05:07;;;;;;;;;;;;;;;-140.72;0.00;52062.16;6279004;22;19918;-76
2023/08/20 10:07:33;;;;;;;;;;;;;;;-140.72;0.00;52070.28;6278176;22;20344;-74
2023/08/20 10:10:05;;;;;;;;;;;;;;;-140.72;0.00;52086.50;6276552;22;19922;-75
2023/08/20 10:12:31;;;;;;;;;;;;;;;-140.72;0.00;52102.75;6278652;22;20235;-75
2023/08/20 10:18:25;;;;;;;;;;;;;;;-140.72;0.00;52068.25;6278072;22;20362;-74
2023/08/20 10:20:51;;;;;;;;;;;;;;;-140.72;0.00;52005.34;6277897;22;19990;-74
2023/08/20 10:23:19;;;;;;;;;;;;;;;-140.72;0.00;51972.88;6276238;22;19942;-74
2023/08/20 10:25:46;;;;;;;;;;;;;;;-140.72;0.00;51962.75;6277676;22;19938;-73
2023/08/20 10:28:28;;;;;;;;;;;;;;;-140.72;0.00;51910.00;6277211;22;19935;-72
2023/08/20 10:31:10;;;;;;;;;;;;;;;-140.72;0.00;51932.31;6275907;22;19919;-73
2023/08/20 10:33:53;;;;;;;;;;;;;;;-140.72;0.00;51928.25;6276091;22;19918;-73
2023/08/20 10:36:28;;;;;;;;;;;;;;;-140.72;0.00;51895.78;6277493;22;20365;-73
2023/08/20 10:38:58;;;;;;;;;;;;;;;-140.72;0.00;51901.88;6275822;22;19998;-73
2023/08/20 10:41:27;;;;;;;;;;;;;;;-140.72;0.00;51887.66;6275806;22;19956;-73
2023/08/20 10:43:53;;;;;;;;;;;;;;;-140.72;0.00;51893.75;6276247;22;20236;-73
2023/08/20 10:46:21;;;;;;;;;;;;;;;-140.72;0.00;51903.91;6275643;22;19911;-73
2023/08/20 10:48:48;;;;;;;;;;;;;;;-140.72;0.00;51903.91;6277675;22;20319;-73
2023/08/20 10:51:33;;;;;;;;;;;;;;;-140.72;0.00;51910.00;6276172;22;19911;-72
2023/08/20 10:54:05;;;;;;;;;;;;;;;-140.72;0.00;51871.44;6276952;22;19989;-73
2023/08/20 10:56:43;;;;;;;;;;;;;;;-140.72;0.00;51891.72;6277146;22;19911;-72
2023/08/20 10:59:18;;;;;;;;;;;;;;;-140.72;0.00;51910.00;6277886;22;20006;-76
2023/08/20 11:01:45;;;;;;;;;;;;;;;-140.72;0.00;51912.03;6279987;22;19911;-75
2023/08/20 11:04:11;;;;;;;;;;;;;;;-140.72;0.00;51838.97;6275715;22;19998;-74
2023/08/20 11:06:36;;;;;;;;;;;;;;;-140.72;0.00;51810.56;6276822;22;19916;-73
2023/08/20 11:09:05;;;;;;;;;;;;;;;-140.72;0.00;51798.41;6277053;22;19994;-75
2023/08/20 11:11:31;;;;;;;;;;;;;;;-140.72;0.00;51810.56;6275723;22;20344;-73
2023/08/20 11:13:56;;;;;;;;;;;;;;;-140.72;0.00;51867.38;6275665;22;19915;-74
2023/08/20 11:16:22;;;;;;;;;;;;;;;-140.72;0.00;52086.50;6275795;22;19945;-73
2023/08/20 11:18:52;;;;;;;;;;;;;;;-140.72;0.00;51940.41;6275010;22;19938;-73
2023/08/20 11:21:17;;;;;;;;;;;;;;;-140.72;0.00;51885.66;6275671;22;19968;-71
2023/08/20 11:24:00;;;;;;;;;;;;;;;-140.72;0.00;51794.34;6275395;22;19945;-70
2023/08/20 11:26:25;;;;;;;;;;;;;;;-140.72;0.00;51806.53;6275242;22;19911;-74
2023/08/20 11:28:50;;;;;;;;;;;;;;;-140.72;0.00;51944.47;6277255;22;19923;-76
2023/08/20 11:31:15;;;;;;;;;;;;;;;-140.72;0.00;51806.53;6275002;22;19912;-75
2023/08/20 11:33:41;;;;;;;;;;;;;;;-140.72;0.00;51776.09;6276231;22;20229;-75
2023/08/20 11:36:06;;;;;;;;;;;;;;;-140.72;0.00;51701.03;6277093;22;19924;-78
2023/08/20 11:38:31;;;;;;;;;;;;;;;-140.72;0.00;51810.56;6278370;22;19919;-70
2023/08/20 11:41:01;;;;;;;;;;;;;;;-140.72;0.00;51784.19;6278840;22;19957;-68
2023/08/20 11:43:27;;;;;;;;;;;;;;;-140.72;0.00;51778.13;6281780;22;20256;-69
2023/08/20 11:45:54;;;;;;;;;;;;;;;-140.72;0.00;51737.53;6307545;22;19917;-68
2023/08/20 11:48:21;;;;;;;;;;;;;;;-140.72;0.00;51717.25;6305599;22;19998;-68
2023/08/20 11:50:46;;;;;;;;;;;;;;;-140.72;0.00;51607.69;6279961;22;19982;-68
2023/08/20 11:53:12;;;;;;;;;;;;;;;-140.72;0.00;51810.56;6279124;22;19915;-68
2023/08/20 11:55:38;;;;;;;;;;;;;;;-140.72;0.00;51936.38;6277414;22;19918;-69
2023/08/20 11:58:03;;;;;;;;;;;;;;;-140.72;0.00;52074.34;6279033;22;19934;-67
2023/08/20 12:00:30;;;;;;;;;;;;;;;-140.72;0.00;52082.44;6303079;22;19911;-67
2023/08/20 12:02:55;;;;;;;;;;;;;;;-140.72;0.00;52133.16;6278424;22;19918;-67
2023/08/20 12:05:30;;;;;;;;;;;;;;;-140.72;0.00;52153.47;6278301;22;19982;-67
2023/08/20 12:07:59;;;;;;;;;;;;;;;-140.72;0.00;52155.50;6278191;22;19911;-68
2023/08/20 12:10:26;;;;;;;;;;;;;;;-140.72;0.00;52228.53;6278270;22;19915;-67
2023/08/20 12:12:52;;;;;;;;;;;;;;;-140.72;0.00;52228.53;6278491;22;20324;-68
2023/08/20 12:15:18;;;;;;;;;;;;;;;-140.72;0.00;52244.78;6278593;22;19922;-67
2023/08/20 12:17:44;;;;;;;;;;;;;;;-140.72;0.00;52279.25;6278558;22;19937;-68
2023/08/20 12:20:12;;;;;;;;;;;;;;;-140.72;0.00;52299.56;6277873;22;19911;-68
2023/08/20 12:22:38;;;;;;;;;;;;;;;-140.72;0.00;52277.22;6277902;22;20325;-68
2023/08/20 12:25:03;;;;;;;;;;;;;;;-140.72;0.00;52273.19;6279376;22;19961;-68
2023/08/20 12:27:28;;;;;;;;;;;;;;;-140.72;0.00;52297.53;6278313;22;19942;-68
2023/08/20 12:29:54;;;;;;;;;;;;;;;-140.72;0.00;52301.59;6302189;22;20316;-67